createdAt,value
2022-12-03T00:00:19.671Z,12.67
2022-12-03T00:02:58.652Z,13.50
2022-12-03T00:05:28.927Z,12.67
2022-12-03T00:07:56.923Z,12.83
2022-12-03T00:10:25.081Z,12.50
2022-12-03T00:12:53.002Z,13.70
2022-12-03T00:15:20.977Z,12.43
2022-12-03T00:17:48.870Z,12.17
2022-12-03T00:20:40.887Z,12.83
2022-12-03T00:25:55.850Z,12.53
2022-12-03T00:28:23.733Z,13.17
2022-12-03T00:30:56.220Z,13.00
2022-12-03T00:33:25.130Z,13.83
2022-12-03T00:35:56.586Z,13.33
2022-12-03T00:41:23.283Z,11.73
2022-12-03T00:44:01.731Z,12.27
2022-12-03T00:46:29.742Z,12.73
2022-12-03T00:49:07.864Z,12.17
2022-12-03T00:51:37.255Z,13.37
2022-12-03T00:54:06.539Z,12.30
2022-12-03T00:56:37.765Z,13.17
2022-12-03T00:59:20.529Z,12.83
2022-12-03T01:01:48.468Z,12.77
2022-12-03T01:04:30.950Z,12.57
2022-12-03T01:07:22.105Z,12.50
2022-12-03T01:09:50.016Z,13.67
2022-12-03T01:12:20.548Z,12.50
2022-12-03T01:14:51.674Z,12.63
2022-12-03T01:17:20.715Z,13.00
2022-12-03T01:19:48.796Z,12.70
2022-12-03T01:22:18.861Z,12.73
2022-12-03T01:27:34.592Z,12.50
2022-12-03T01:30:02.787Z,12.37
2022-12-03T01:32:45.678Z,13.03
2022-12-03T01:35:13.802Z,12.07
2022-12-03T01:37:45.824Z,11.83
2022-12-03T01:40:20.749Z,12.37
2022-12-03T01:42:48.613Z,11.80
2022-12-03T01:45:24.002Z,12.13
2022-12-03T01:48:07.727Z,11.47
2022-12-03T01:53:32.866Z,11.57
2022-12-03T01:56:03.147Z,11.63
2022-12-03T02:01:38.394Z,12.73
2022-12-03T02:04:11.000Z,12.33
2022-12-03T02:06:39.530Z,12.13
2022-12-03T02:09:39.753Z,12.07
2022-12-03T02:12:07.889Z,12.70
2022-12-03T02:14:52.994Z,12.73
2022-12-03T02:17:40.801Z,12.03
2022-12-03T02:20:17.030Z,12.63
2022-12-03T02:23:05.556Z,13.03
2022-12-03T02:25:43.104Z,12.30
2022-12-03T02:28:33.931Z,12.87
2022-12-03T02:31:08.695Z,12.20
2022-12-03T02:33:50.162Z,12.73
2022-12-03T02:36:32.718Z,13.63
2022-12-03T02:39:02.476Z,12.90
2022-12-03T02:41:56.503Z,12.47
2022-12-03T02:44:26.264Z,13.13
2022-12-03T02:46:54.373Z,12.97
2022-12-03T02:49:28.126Z,13.30
2022-12-03T02:51:58.452Z,13.27
2022-12-03T02:54:27.603Z,13.37
2022-12-03T02:56:59.788Z,13.37
2022-12-03T02:59:27.899Z,13.20
2022-12-03T03:01:56.468Z,13.53
2022-12-03T03:08:00.265Z,13.40
2022-12-03T03:10:31.421Z,13.40
2022-12-03T03:13:02.596Z,13.30
2022-12-03T03:15:32.412Z,14.17
2022-12-03T03:18:00.340Z,13.67
2022-12-03T03:20:28.317Z,13.90
2022-12-03T03:23:10.388Z,13.77
2022-12-03T03:28:16.707Z,13.90
2022-12-03T03:30:46.428Z,14.60
2022-12-03T03:33:15.953Z,13.70
2022-12-03T03:35:45.957Z,12.83
2022-12-03T03:38:14.398Z,13.07
2022-12-03T03:40:43.345Z,12.73
2022-12-03T03:43:12.777Z,13.80
2022-12-03T03:45:42.710Z,14.00
2022-12-03T03:48:11.368Z,14.03
2022-12-03T03:50:53.523Z,15.50
2022-12-03T03:53:26.916Z,14.20
2022-12-03T03:58:36.940Z,14.47
2022-12-03T04:01:11.662Z,14.37
2022-12-03T04:03:40.440Z,15.40
2022-12-03T04:06:11.373Z,13.70
2022-12-03T04:08:40.001Z,15.93
2022-12-03T04:11:37.229Z,14.60
2022-12-03T04:14:10.248Z,14.67
2022-12-03T04:16:39.717Z,16.17
2022-12-03T04:19:13.315Z,14.57
2022-12-03T04:21:59.457Z,15.13
2022-12-03T04:24:37.234Z,14.70
2022-12-03T04:27:22.704Z,14.50
2022-12-03T04:35:37.198Z,14.77
2022-12-03T04:38:08.250Z,14.43
2022-12-03T04:40:53.871Z,15.07
2022-12-03T04:43:24.234Z,15.07
2022-12-03T04:51:56.967Z,15.30
2022-12-03T04:54:47.023Z,15.83
2022-12-03T04:59:58.187Z,14.87
2022-12-03T05:02:35.024Z,14.53
2022-12-03T05:05:25.416Z,13.93
2022-12-03T05:08:01.392Z,14.23
2022-12-03T05:10:29.354Z,15.00
2022-12-03T05:12:57.269Z,13.23
2022-12-03T05:15:26.476Z,14.77
2022-12-03T05:17:54.376Z,14.40
2022-12-03T05:20:39.815Z,13.97
2022-12-03T05:23:09.319Z,14.53
2022-12-03T05:25:37.213Z,13.53
2022-12-03T05:28:07.398Z,13.57
2022-12-03T05:30:35.813Z,14.80
2022-12-03T05:33:04.270Z,14.33
2022-12-03T05:35:33.178Z,14.47
2022-12-03T05:38:01.129Z,14.23
2022-12-03T05:40:31.644Z,14.73
2022-12-03T05:43:01.062Z,14.07
2022-12-03T05:45:30.774Z,15.00
2022-12-03T05:48:04.038Z,14.33
2022-12-03T05:50:33.767Z,14.33
2022-12-03T05:53:12.724Z,13.43
2022-12-03T05:55:42.143Z,14.33
2022-12-03T05:58:10.396Z,14.57
2022-12-03T06:00:42.877Z,14.43
2022-12-03T06:03:11.772Z,15.20
2022-12-03T06:05:39.775Z,14.77
2022-12-03T06:08:11.123Z,14.20
2022-12-03T06:10:40.959Z,14.43
2022-12-03T06:13:08.850Z,14.70
2022-12-03T06:15:44.042Z,14.93
2022-12-03T06:18:12.386Z,13.70
2022-12-03T06:20:47.678Z,14.77
2022-12-03T06:23:21.871Z,15.10
2022-12-03T06:26:10.130Z,14.40
2022-12-03T06:28:37.948Z,13.93
2022-12-03T06:31:06.082Z,14.20
2022-12-03T06:33:35.493Z,14.13
2022-12-03T06:36:03.712Z,14.30
2022-12-03T06:38:33.192Z,14.07
2022-12-03T06:41:02.325Z,15.07
2022-12-03T06:43:30.944Z,14.20
2022-12-03T06:45:59.074Z,13.87
2022-12-03T06:48:27.118Z,14.90
2022-12-03T06:50:54.968Z,15.47
2022-12-03T06:53:26.480Z,15.40
2022-12-03T06:55:54.288Z,15.90
2022-12-03T06:58:23.470Z,14.87
2022-12-03T07:00:51.508Z,14.13
2022-12-03T07:03:19.416Z,14.67
2022-12-03T07:05:50.480Z,14.93
2022-12-03T07:09:00.531Z,14.80
2022-12-03T07:11:39.995Z,15.23
2022-12-03T07:14:20.144Z,15.07
2022-12-03T07:19:52.667Z,15.93
2022-12-03T07:22:20.490Z,14.83
2022-12-03T07:24:49.477Z,15.43
2022-12-03T07:27:30.531Z,15.17
2022-12-03T07:29:59.668Z,15.10
2022-12-03T07:32:27.524Z,14.97
2022-12-03T07:34:56.653Z,15.93
2022-12-03T07:37:26.526Z,15.33
2022-12-03T07:39:57.416Z,15.23
2022-12-03T07:42:25.335Z,15.53
2022-12-03T07:44:53.544Z,15.00
2022-12-03T07:53:33.329Z,16.60
2022-12-03T07:58:47.809Z,17.03
2022-12-03T08:01:16.915Z,16.50
2022-12-03T08:03:51.839Z,16.30
2022-12-03T08:06:37.332Z,16.87
2022-12-03T08:12:51.154Z,15.47
2022-12-03T08:15:55.485Z,17.03
2022-12-03T08:18:30.615Z,16.87
2022-12-03T08:23:45.145Z,16.27
2022-12-03T08:26:25.177Z,17.00
2022-12-03T08:28:53.926Z,16.97
2022-12-03T08:31:38.241Z,17.00
2022-12-03T08:34:18.721Z,15.53
2022-12-03T08:36:57.074Z,16.50
2022-12-03T08:39:31.363Z,15.70
2022-12-03T08:42:24.175Z,16.20
2022-12-03T08:44:52.716Z,16.90
2022-12-03T08:47:23.592Z,15.73
2022-12-03T08:49:58.065Z,15.73
2022-12-03T08:52:32.340Z,14.67
2022-12-03T08:55:01.161Z,16.63
2022-12-03T08:57:30.752Z,15.63
2022-12-03T09:00:01.397Z,15.53
2022-12-03T09:02:34.202Z,15.77
2022-12-03T09:05:14.706Z,14.47
2022-12-03T09:07:42.806Z,14.10
2022-12-03T09:10:11.185Z,14.20
2022-12-03T09:12:39.200Z,14.30
2022-12-03T09:15:08.057Z,15.57
2022-12-03T09:17:37.343Z,14.50
2022-12-03T09:20:06.328Z,14.87
2022-12-03T09:22:34.324Z,14.63
2022-12-03T09:25:02.337Z,14.97
2022-12-03T09:27:31.548Z,15.27
2022-12-03T09:29:59.811Z,14.57
2022-12-03T09:32:27.834Z,14.77
2022-12-03T09:34:57.332Z,13.77
2022-12-03T09:37:25.463Z,14.63
2022-12-03T09:39:53.308Z,15.47
2022-12-03T09:42:21.349Z,14.10
2022-12-03T09:44:49.332Z,15.07
2022-12-03T09:47:17.418Z,15.23
2022-12-03T09:49:46.145Z,15.00
2022-12-03T09:52:22.319Z,15.03
2022-12-03T09:54:50.474Z,15.33
2022-12-03T09:57:19.462Z,16.37
2022-12-03T09:59:48.037Z,15.83
2022-12-03T10:02:22.428Z,15.13
2022-12-03T10:04:51.213Z,14.67
2022-12-03T10:07:20.971Z,16.37
2022-12-03T10:09:48.986Z,15.10
2022-12-03T10:12:23.627Z,15.80
2022-12-03T10:14:52.601Z,15.37
2022-12-03T10:17:20.716Z,15.63
2022-12-03T10:19:48.816Z,16.10
2022-12-03T10:22:17.148Z,16.70
2022-12-03T10:24:46.459Z,15.93
2022-12-03T10:27:25.362Z,16.50
2022-12-03T10:29:57.434Z,16.83
2022-12-03T10:32:27.981Z,17.27
2022-12-03T10:35:10.005Z,17.27
2022-12-03T10:37:37.906Z,16.17
2022-12-03T10:40:12.194Z,15.23
2022-12-03T10:42:41.682Z,15.97
2022-12-03T10:45:15.864Z,15.60
2022-12-03T10:47:44.709Z,15.87
2022-12-03T10:50:20.110Z,15.77
2022-12-03T10:52:48.394Z,16.30
2022-12-03T10:55:17.969Z,16.87
2022-12-03T10:57:46.996Z,16.27
2022-12-03T11:00:18.267Z,15.37
2022-12-03T11:02:58.475Z,16.53
2022-12-03T11:05:30.757Z,16.10
2022-12-03T11:08:09.098Z,15.70
2022-12-03T11:10:44.029Z,15.87
2022-12-03T11:13:46.192Z,15.40
2022-12-03T11:16:15.146Z,15.27
2022-12-03T11:19:17.417Z,16.17
2022-12-03T11:22:21.637Z,16.33
2022-12-03T11:25:45.648Z,17.43
2022-12-03T11:28:56.189Z,17.07
2022-12-03T11:31:50.558Z,16.90
2022-12-03T11:34:53.022Z,15.73
2022-12-03T11:37:31.768Z,17.13
2022-12-03T11:40:44.049Z,16.07
2022-12-03T11:43:12.056Z,17.57
2022-12-03T11:45:51.039Z,16.33
2022-12-03T11:48:22.182Z,16.87
2022-12-03T11:51:10.096Z,17.67
2022-12-03T11:53:42.434Z,19.57
2022-12-03T11:56:18.805Z,18.83
2022-12-03T11:58:48.262Z,19.40
2022-12-03T12:01:38.128Z,19.40
2022-12-03T12:04:07.942Z,18.83
2022-12-03T12:06:42.662Z,18.77
2022-12-03T12:09:13.662Z,18.50
2022-12-03T12:11:43.563Z,20.00
2022-12-03T12:14:13.015Z,18.77
2022-12-03T12:16:51.247Z,19.07
2022-12-03T12:19:30.451Z,18.97
2022-12-03T12:22:17.935Z,17.87
2022-12-03T12:24:48.314Z,18.60
2022-12-03T12:27:19.666Z,20.17
2022-12-03T12:30:01.165Z,20.03
2022-12-03T12:32:32.518Z,18.77
2022-12-03T12:35:03.980Z,19.10
2022-12-03T12:37:35.902Z,19.80
2022-12-03T12:40:11.446Z,17.80
2022-12-03T12:42:44.230Z,21.30
2022-12-03T12:45:48.074Z,19.17
2022-12-03T12:52:25.051Z,18.33
2022-12-03T12:54:56.768Z,17.87
2022-12-03T12:57:28.042Z,17.90
2022-12-03T12:59:56.535Z,18.73
2022-12-03T13:02:42.111Z,19.63
2022-12-03T13:05:14.712Z,19.30
2022-12-03T13:08:14.317Z,19.17
2022-12-03T13:10:43.486Z,18.80
2022-12-03T13:13:43.598Z,17.20
2022-12-03T13:17:01.207Z,18.13
2022-12-03T13:19:31.329Z,17.33
2022-12-03T13:22:40.184Z,17.83
2022-12-03T13:28:33.897Z,19.13
2022-12-03T13:31:34.119Z,18.40
2022-12-03T13:37:13.586Z,18.03
2022-12-03T13:40:25.142Z,20.03
2022-12-03T13:43:07.885Z,20.03
2022-12-03T13:49:00.247Z,19.20
2022-12-03T13:51:38.976Z,19.53
2022-12-03T13:54:48.679Z,18.03
2022-12-03T13:57:19.560Z,19.73
2022-12-03T13:59:48.937Z,21.10
2022-12-03T14:02:17.259Z,17.83
2022-12-03T14:04:58.416Z,21.73
2022-12-03T14:07:29.997Z,16.70
2022-12-03T14:13:26.135Z,17.00
2022-12-03T14:16:08.398Z,17.17
2022-12-03T14:18:56.322Z,18.97
2022-12-03T14:21:33.023Z,15.63
2022-12-03T14:24:09.134Z,16.90
2022-12-03T14:27:12.773Z,18.73
2022-12-03T14:29:59.564Z,17.40
2022-12-03T14:32:44.742Z,15.67
2022-12-03T14:38:46.509Z,16.03
2022-12-03T14:41:28.364Z,16.17
2022-12-03T14:43:56.250Z,15.77
2022-12-03T14:46:32.939Z,15.03
2022-12-03T14:49:02.239Z,17.13
2022-12-03T14:51:34.677Z,16.40
2022-12-03T14:54:02.569Z,18.07
2022-12-03T14:56:41.073Z,16.10
2022-12-03T14:59:08.903Z,16.93
2022-12-03T15:01:47.557Z,15.80
2022-12-03T15:04:19.471Z,16.03
2022-12-03T15:06:51.945Z,18.03
2022-12-03T15:09:24.189Z,16.77
2022-12-03T15:11:56.551Z,15.97
2022-12-03T15:14:49.915Z,17.13
2022-12-03T15:17:55.903Z,16.80
2022-12-03T15:20:41.705Z,17.13
2022-12-03T15:23:25.878Z,17.43
2022-12-03T15:25:56.479Z,17.80
2022-12-03T15:28:27.342Z,19.17
2022-12-03T15:31:05.228Z,20.63
2022-12-03T15:33:45.615Z,20.50
2022-12-03T15:41:55.941Z,20.60
2022-12-03T15:45:13.630Z,20.53
2022-12-03T15:47:53.928Z,21.40
2022-12-03T15:50:21.924Z,19.90
2022-12-03T15:52:50.027Z,22.83
2022-12-03T15:55:19.481Z,20.57
2022-12-03T15:57:47.448Z,24.80
2022-12-03T16:00:16.585Z,21.50
2022-12-03T16:02:50.779Z,22.93
2022-12-03T16:05:20.512Z,19.87
2022-12-03T16:07:48.463Z,22.90
2022-12-03T16:10:21.288Z,21.83
2022-12-03T16:12:50.854Z,20.90
2022-12-03T16:15:22.251Z,22.27
2022-12-03T16:17:53.056Z,21.77
2022-12-03T16:20:20.970Z,22.63
2022-12-03T16:22:48.901Z,21.63
2022-12-03T16:25:16.840Z,20.50
2022-12-03T16:27:44.771Z,21.67
2022-12-03T16:30:15.003Z,19.27
2022-12-03T16:32:42.895Z,19.13
2022-12-03T16:35:10.927Z,20.50
2022-12-03T16:37:38.955Z,20.17
2022-12-03T16:40:08.399Z,18.73
2022-12-03T16:42:37.253Z,19.30
2022-12-03T16:45:33.801Z,17.73
2022-12-03T16:48:03.782Z,16.87
2022-12-03T16:50:31.728Z,16.10
2022-12-03T16:52:59.705Z,16.57
2022-12-03T16:55:27.854Z,17.67
2022-12-03T16:57:55.742Z,21.07
2022-12-03T17:00:25.772Z,18.33
2022-12-03T17:02:53.880Z,18.07
2022-12-03T17:05:23.137Z,16.13
2022-12-03T17:07:51.087Z,18.07
2022-12-03T17:10:19.313Z,17.07
2022-12-03T17:13:08.648Z,16.43
2022-12-03T17:15:35.403Z,17.93
2022-12-03T17:18:04.554Z,17.33
2022-12-03T17:20:34.545Z,17.87
2022-12-03T17:23:02.663Z,16.70
2022-12-03T17:25:31.125Z,17.07
2022-12-03T17:27:59.139Z,18.37
2022-12-03T17:30:27.429Z,18.37
2022-12-03T17:32:55.501Z,16.77
2022-12-03T17:35:23.755Z,17.33
2022-12-03T17:37:53.223Z,17.83
2022-12-03T17:40:21.267Z,17.60
2022-12-03T17:42:49.189Z,18.97
2022-12-03T17:45:17.320Z,17.90
2022-12-03T17:47:45.949Z,18.67
2022-12-03T17:50:14.295Z,19.60
2022-12-03T17:52:42.189Z,19.13
2022-12-03T17:55:16.268Z,19.37
2022-12-03T17:57:51.962Z,20.23
2022-12-03T18:00:20.369Z,20.20
2022-12-03T18:02:48.202Z,18.97
2022-12-03T18:05:22.944Z,21.50
2022-12-03T18:07:51.221Z,20.20
2022-12-03T18:10:22.844Z,21.23
2022-12-03T18:12:50.747Z,24.57
2022-12-03T18:15:19.245Z,20.47
2022-12-03T18:17:47.191Z,20.20
2022-12-03T18:20:15.262Z,20.97
2022-12-03T18:22:43.254Z,21.17
2022-12-03T18:25:11.635Z,21.17
2022-12-03T18:27:41.349Z,21.07
2022-12-03T18:30:10.364Z,21.57
2022-12-03T18:32:38.425Z,21.23
2022-12-03T18:35:06.825Z,22.87
2022-12-03T18:37:35.476Z,20.57
2022-12-03T18:40:12.377Z,21.13
2022-12-03T18:42:42.246Z,20.40
2022-12-03T18:45:12.961Z,21.00
2022-12-03T18:47:40.910Z,20.97
2022-12-03T18:50:11.843Z,21.53
2022-12-03T18:52:41.744Z,20.37
2022-12-03T18:55:15.902Z,20.63
2022-12-03T18:57:54.401Z,20.37
2022-12-03T19:00:22.570Z,20.93
2022-12-03T19:03:06.049Z,20.17
2022-12-03T19:05:36.266Z,19.13
2022-12-03T19:08:14.799Z,20.77
2022-12-03T19:10:44.169Z,19.10
2022-12-03T19:13:13.472Z,20.47
2022-12-03T19:15:41.784Z,19.50
2022-12-03T19:18:09.740Z,19.63
2022-12-03T19:20:42.593Z,19.13
2022-12-03T19:23:11.449Z,19.30
2022-12-03T19:25:39.309Z,18.20
2022-12-03T19:28:07.499Z,19.67
2022-12-03T19:30:36.787Z,18.00
2022-12-03T19:33:08.502Z,18.17
2022-12-03T19:35:40.353Z,17.90
2022-12-03T19:38:15.798Z,18.10
2022-12-03T19:40:43.657Z,16.93
2022-12-03T19:43:19.979Z,18.40
2022-12-03T19:45:49.350Z,18.70
2022-12-03T19:48:17.287Z,18.47
2022-12-03T19:51:19.413Z,17.27
2022-12-03T19:59:33.235Z,17.20
2022-12-03T20:02:03.118Z,18.50
2022-12-03T20:07:40.595Z,16.97
2022-12-03T20:10:11.708Z,18.53
2022-12-03T20:12:40.116Z,16.97
2022-12-03T20:15:08.570Z,19.10
2022-12-03T20:17:40.103Z,17.30
2022-12-03T20:20:18.568Z,18.03
2022-12-03T20:22:57.143Z,17.73
2022-12-03T20:25:45.388Z,16.87
2022-12-03T20:28:34.668Z,17.57
2022-12-03T20:31:26.766Z,16.77
2022-12-03T20:34:12.742Z,18.37
2022-12-03T20:36:44.935Z,17.73
2022-12-03T20:41:54.890Z,17.80
2022-12-03T20:44:22.863Z,18.37
2022-12-03T20:53:23.267Z,17.20
2022-12-03T20:55:56.494Z,16.87
2022-12-03T20:58:50.307Z,16.80
2022-12-03T21:01:24.202Z,17.13
2022-12-03T21:03:53.478Z,16.73
2022-12-03T21:06:40.157Z,17.80
2022-12-03T21:09:14.199Z,17.53
2022-12-03T21:14:41.553Z,16.07
2022-12-03T21:17:11.879Z,16.50
2022-12-03T21:19:47.470Z,17.80
2022-12-03T21:22:15.415Z,16.93
2022-12-03T21:24:45.825Z,17.67
2022-12-03T21:27:22.801Z,17.77
2022-12-03T21:30:07.187Z,18.10
2022-12-03T21:32:39.214Z,17.17
2022-12-03T21:35:10.343Z,18.10
2022-12-03T21:37:42.108Z,17.70
2022-12-03T21:40:12.819Z,16.47
2022-12-03T21:42:40.735Z,18.07
2022-12-03T21:45:10.628Z,18.80
2022-12-03T21:47:38.737Z,18.97
2022-12-03T21:50:13.694Z,18.53
2022-12-03T21:52:42.956Z,18.83
2022-12-03T21:55:22.964Z,18.87
2022-12-03T21:57:51.936Z,18.30
2022-12-03T22:00:21.380Z,19.43
2022-12-03T22:02:49.581Z,18.33
2022-12-03T22:05:17.868Z,18.60
2022-12-03T22:07:46.332Z,19.20
2022-12-03T22:10:15.605Z,18.97
2022-12-03T22:12:43.668Z,19.07
2022-12-03T22:15:42.204Z,18.97
2022-12-03T22:18:13.360Z,19.37
2022-12-03T22:20:43.165Z,19.87
2022-12-03T22:23:11.885Z,19.53
2022-12-03T22:25:41.104Z,21.10
2022-12-03T22:28:09.042Z,19.37
2022-12-03T22:30:40.175Z,19.90
2022-12-03T22:33:08.088Z,19.10
2022-12-03T22:35:38.321Z,20.17
2022-12-03T22:38:06.627Z,18.47
2022-12-03T22:40:36.368Z,18.37
2022-12-03T22:43:08.223Z,18.97
2022-12-03T22:45:37.355Z,19.13
2022-12-03T22:48:14.056Z,19.80
2022-12-03T22:50:44.110Z,18.33
2022-12-03T22:53:12.174Z,18.70
2022-12-03T22:55:40.834Z,19.80
2022-12-03T22:58:11.850Z,18.50
2022-12-03T23:00:44.232Z,19.17
2022-12-03T23:03:15.143Z,18.47
2022-12-03T23:05:43.252Z,18.27
2022-12-03T23:08:16.074Z,19.67
2022-12-03T23:10:47.101Z,18.60
2022-12-03T23:13:17.493Z,18.00
2022-12-03T23:15:47.754Z,18.90
2022-12-03T23:18:16.979Z,18.63
2022-12-03T23:20:48.450Z,19.23
2022-12-03T23:23:37.213Z,18.37
2022-12-03T23:26:06.912Z,19.70
2022-12-03T23:28:40.620Z,18.17
2022-12-03T23:31:20.569Z,18.67
2022-12-03T23:33:48.927Z,19.53
2022-12-03T23:36:17.858Z,18.70
2022-12-03T23:38:46.082Z,18.87
2022-12-03T23:41:17.091Z,19.70
2022-12-03T23:43:49.131Z,19.33
2022-12-03T23:46:28.015Z,18.10
2022-12-03T23:49:00.315Z,19.03
2022-12-03T23:51:31.375Z,19.03
2022-12-03T23:54:17.615Z,19.40
2022-12-03T23:56:45.907Z,18.70
2022-12-03T23:59:17.603Z,19.70
